Nearby METAR (Airport) Reports

 

KPRN - Greenville, Alabama, USA
Distance from station: WNW 17mi, 28km
Updated: Mon, 09-Dec-2019 5:56am CST
Overcast
Overcast
 Wind from S
Wind: S 5 mph , 7 km/h
Temperature: 63°F , 17°C
Dew Point: 59°F , 15°C
Humidity: 88%
Barometer: 30.00 inHg , 1015.9 hPa
Clouds: Overcast
Visibility: 9 miles , 14 km
Cloud details: Mostly cloudy 900 ft
Overcast 1600 ft
2019/12/09 11:56 KPRN 091156Z AUTO 18004KT 9SM BKN009 OVC016 17/15 A3000 RMK AO2 CIG 005V013 SLP155 60002 70002 T01720150 10172 20156 51004
KTOI - Troy, Alabama, USA
Distance from station: ENE 21mi, 34km
Updated: Mon, 09-Dec-2019 6:00am CST
Overcast
Overcast
 Wind from varies
Wind: varies 3 mph , 6 km/h
Temperature: 61°F , 16°C
Dew Point: 61°F , 16°C
Humidity: 100%
Barometer: 30.03 inHg , 1016.9 hPa
Clouds: Overcast
Visibility: 7 miles , 11 km
Cloud details: Overcast 500 ft
2019/12/09 12:00 KTOI 091200Z AUTO VRB03KT 7SM OVC005 16/16 A3003 RMK AO2 T01610161 $
K79J - Andalusia/Opp Ar, Alabama, USA
Distance from station: S 29mi, 47km
Updated: Mon, 09-Dec-2019 6:07am CST
Overcast
Overcast
 Wind from calm
Wind: Calm
Temperature: 64°F , 18°C
Dew Point: 61°F , 16°C
Humidity: 88%
Barometer: 30.02 inHg , 1016.6 hPa
Clouds: Overcast
Visibility: 9 miles , 14 km
Cloud details: Overcast 700 ft
2019/12/09 12:07 K79J 091207Z AUTO 00000KT 9SM OVC007 18/16 A3002 RMK AO2 CIG 005V012 T01830161 $
 
KMGM - Montgomery, Alabama, USA
Distance from station: N 39mi, 63km
Updated: Mon, 09-Dec-2019 5:53am CST
Few Clouds
Few Clouds
 Wind from SE
Wind: SE 8 mph , 13 km/h
Temperature: 63°F , 17°C
Dew Point: 59°F , 15°C
Humidity: 88%
Barometer: 29.99 inHg , 1015.6 hPa
Clouds: Few Clouds
Visibility: 10 miles , 16 km
Cloud details: Few Clouds 1200 ft
Few Clouds 4400 ft
2019/12/09 11:53 KMGM 091153Z AUTO 14007KT 10SM FEW012 FEW044 17/15 A2999 RMK AO2 SLP155 60000 T01670150 10178 20161 58002
KMXF - Maxwell Afb/Mgm, Alabama, USA
Distance from station: N 44mi, 70km
Updated: Mon, 09-Dec-2019 5:56am CST
Partly cloudy
Partly cloudy
 Wind from SSE
Wind: SSE 8 mph , 13 km/h
Temperature: 61°F , 16°C
Dew Point: 59°F , 15°C
Humidity: 94%
Barometer: 29.99 inHg , 1015.6 hPa
Clouds: Partly cloudy
Visibility: 10 miles , 16 km
Cloud details: Few Clouds 1000 ft
Few Clouds 1700 ft
Partly cloudy 2400 ft
2019/12/09 11:56 KMXF 091156Z AUTO 15007KT 10SM FEW010 FEW017 SCT024 16/15 A2999 RMK AO2 DZB1056E08 SLP158 P0000 60000 70001 T01600147 10165 20157 58002
KLOR - Lowe Ahp/Ft. Ruc, Alabama, USA
Distance from station: SE 44mi, 71km
Updated: Mon, 09-Dec-2019 5:58am CST
Overcast
Overcast
 Wind from calm
Wind: Calm
Temperature: 61°F , 16°C
Dew Point: 61°F , 16°C
Humidity: 100%
Barometer: 30.02 inHg , 1016.6 hPa
Clouds: Overcast
Visibility: 7 miles , 11 km
Cloud details: Mostly cloudy 600 ft
Overcast 1500 ft
2019/12/09 11:58 KLOR 091158Z AUTO 00000KT 7SM BKN006 OVC015 16/16 A3002 RMK AO2 SLP148 60001 70001 T01620162 10164 20156 55004
 
KGZH - Evergreen, Alabama, USA
Distance from station: WSW 46mi, 75km
Updated: Mon, 09-Dec-2019 5:53am CST
Overcast
Overcast
 Wind from S
Wind: S 7 mph , 11 km/h
Temperature: 63°F , 17°C
Dew Point: 59°F , 15°C
Humidity: 88%
Barometer: 30.01 inHg , 1016.3 hPa
Clouds: Overcast
Visibility: 9 miles , 14 km
Cloud details: Mostly cloudy 700 ft
Overcast 1100 ft
2019/12/09 11:53 KGZH 091153Z AUTO 19006KT 9SM BKN007 OVC011 17/15 A3001 RMK AO2 CIG 004V009 SLP159 60000 70007 T01720150 10178 20167 51005
K0J4 - Florala Muni, Alabama, USA
Distance from station: S 47mi, 76km
Updated: Mon, 09-Dec-2019 5:58am CST
Mist, Overcast
Mist, Overcast
 Wind from calm
Wind: Calm
Temperature: 63°F , 17°C
Dew Point: 61°F , 16°C
Humidity: 94%
Barometer: 30.03 inHg , 1016.9 hPa
Summary: Mist
Clouds: Overcast
Visibility: 6 miles , 10 km
Cloud details: Overcast 600 ft
2019/12/09 11:58 K0J4 091158Z AUTO 00000KT 6SM BR OVC006 17/16 A3003 RMK AO2 CIG 004V010 SLP167 60000 T01720161 10178 20172 55001 $
KOZR - Ozark/Cairns Aaf, Alabama, USA
Distance from station: SE 49mi, 78km
Updated: Mon, 09-Dec-2019 5:59am CST
Overcast
Overcast
 Wind from S
Wind: S 5 mph , 7 km/h
Temperature: 61°F , 16°C
Dew Point: 61°F , 16°C
Humidity: 100%
Barometer: 30.02 inHg , 1016.6 hPa
Clouds: Overcast
Visibility: 10 miles , 16 km
Cloud details: Mostly cloudy 500 ft
Mostly cloudy 1300 ft
Overcast 2000 ft
2019/12/09 11:59 KOZR 091159Z AUTO 18004KT 10SM BKN005 BKN013 OVC020 16/16 A3002 RMK AO2 RAE59 CIG 005V020 BKN005 V SCT SLP167 $
 
KHEY - Ft Rucker/Hanche, Alabama, USA
Distance from station: ESE 49mi, 79km
Updated: Mon, 09-Dec-2019 6:10am CST
Overcast
Overcast
 Wind from S
Wind: S 3 mph , 6 km/h
Temperature: 61°F , 16°C
Dew Point: 61°F , 16°C
Humidity: 100%
Barometer: 30.01 inHg , 1016.3 hPa
Clouds: Overcast
Visibility: 9 miles , 14 km
Cloud details: Overcast 500 ft
2019/12/09 12:10 KHEY 091210Z AUTO 18003KT 9SM OVC005 16/16 A3001 RMK AO2 RAB1159E10 OVC V BKN SLP164
KDHN - Dothan, Alabama, USA
Distance from station: ESE 61mi, 97km
Updated: Mon, 09-Dec-2019 6:05am CST
Mist, Overcast
Mist, Overcast
 Wind from SE
Wind: SE 8 mph , 13 km/h
Temperature: 63°F , 17°C
Dew Point: 61°F , 16°C
Humidity: 94%
Barometer: 30.06 inHg , 1017.9 hPa
Summary: Mist
Clouds: Overcast
Visibility: 6 miles , 10 km
Cloud details: Few Clouds 600 ft
Mostly cloudy 3900 ft
Overcast 5000 ft
2019/12/09 12:05 KDHN 091205Z 14007KT 6SM BR FEW006 BKN039 OVC050 17/16 A3006 RMK AO2 RAE04 P0000 T01670156
KCEW - Crestview, Florida, USA
Distance from station: S 66mi, 107km
Updated: Mon, 09-Dec-2019 6:12am CST
Mist, Overcast
Mist, Overcast
 Wind from W
Wind: W 3 mph , 6 km/h
Temperature: 64°F , 18°C
Dew Point: 63°F , 17°C
Humidity: 94%
Barometer: 30.03 inHg , 1016.9 hPa
Summary: Mist
Clouds: Overcast
Visibility: 4 miles , 6 km
Cloud details: Mostly cloudy 600 ft
Mostly cloudy 1200 ft
Overcast 1900 ft
2019/12/09 12:12 KCEW 091212Z AUTO 27003KT 4SM BR BKN006 BKN012 OVC019 18/17 A3003 RMK AO2 T01780167
 
KEUF - Eufaula, Alabama, USA
Distance from station: ENE 73mi, 118km
Updated: Mon, 04-Mar-2019 12:58pm CST
NOT Current

 
Barometer: 30.10 inHg , 1019.3 hPa
2019/03/04 18:58 KEUF 041858Z AUTO A3010 RMK AO2 RAEMM TSB02B32 SLPNO PWINO FZRANO TSNO $
KJKA - Gulf Shores, Alabama, USA
Distance from station: SSW 132mi, 212km
Updated: Mon, 09-Dec-2019 6:15am CST
Fog, Overcast
Fog, Overcast
 Wind from calm
Wind: Calm
Temperature: 55°F , 13°C
Dew Point: 55°F , 13°C
Humidity: 100%
Barometer: 30.02 inHg , 1016.6 hPa
Summary: Fog
Clouds: Overcast
Visibility: less than 1/4 mile , 0.4 km
Cloud details: Overcast 300 ft
2019/12/09 12:15 KJKA 091215Z AUTO 00000KT M1/4SM FG OVC003 13/13 A3002 RMK AO2 T01250125
KLSF - Ft Benning/Colum, Georgia, USA
Distance from station: SNE 89mi, 143km
Updated: Mon, 09-Dec-2019 5:56am CST
Overcast
Overcast
 Wind from E
Wind: E 5 mph , 7 km/h
Temperature: 59°F , 15°C
Dew Point: 57°F , 14°C
Humidity: 94%
Barometer: 30.03 inHg , 1016.9 hPa
Clouds: Overcast
Visibility: 10 miles , 16 km
Cloud details: Overcast 300 ft
2019/12/09 11:56 KLSF 091156Z AUTO 10004KT 10SM OVC003 15/14 A3003 RMK AO2 RAE14RAB17E27 SLP174 P0000 60000 T01450139 10154 20144 55009
 
KMOB - Mobile/Bates, Alabama, USA
Distance from station: SW 125mi, 202km
Updated: Mon, 09-Dec-2019 6:10am CST
Fog, Overcast
Fog, Overcast
 Wind from S
Wind: S 7 mph , 11 km/h
Temperature: 57°F , 14°C
Dew Point: 57°F , 14°C
Humidity: 100%
Barometer: 30.01 inHg , 1016.3 hPa
Summary: Fog
Clouds: Overcast
Visibility: 1/2 mile , 0.8 km
Cloud details: Overcast 200 ft
2019/12/09 12:10 KMOB 091210Z 18006KT 1/2SM FG OVC002 14/14 A3001 RMK AO2 T01390139 $
KNMM - Meridian Nas, Mississippi, USA
Distance from station: WNW 151mi, 243km
Updated: Mon, 09-Dec-2019 5:56am CST
Overcast
Overcast
 Wind from S
Wind: S 6 mph , 9 km/h
Temperature: 61°F , 16°C
Dew Point: 57°F , 14°C
Humidity: 88%
Barometer: 29.95 inHg , 1014.2 hPa
Clouds: Overcast
Visibility: 10 miles , 16 km
Cloud details: Partly cloudy 1400 ft
Mostly cloudy 23000 ft
Overcast 30000 ft
2019/12/09 11:56 KNMM 091156Z 19005KT 10SM SCT014 BKN230 OVC300 16/14 A2995 RMK AO2 SLP150 T01560144 10161 20156 50001
KQHY - Hurlbert (Ft Walton Bch), Florida, USA
Distance from station: S 94mi, 151km
Updated: Wed, 04-Dec-2019 9:56am CST
NOT Current
Clear
Clear
 Wind from N
Wind: N 7 mph , 11 km/h
Temperature: 59°F , 15°C
Dew Point: 43°F , 6°C
Humidity: 55%
Barometer: 30.04 inHg , 1017.3 hPa
Clouds: Clear
Visibility: 10 miles , 16 km
2019/12/04 15:56 KQHY 041556Z AUTO 35006KT 10SM CLR 15/06 A3004 RMK AO2 SLP179 T01480064 $
 
KTCL - Tuscaloosa, Alabama, USA
Distance from station: NNW 129mi, 207km
Updated: Mon, 09-Dec-2019 5:53am CST
Overcast
Overcast
 Wind from S
Wind: S 10 mph , 17 km/h
Temperature: 63°F , 17°C
Dew Point: 57°F , 14°C
Humidity: 83%
Barometer: 29.95 inHg , 1014.2 hPa
Clouds: Overcast
Visibility: 9 miles , 14 km
Cloud details: Overcast 1100 ft
2019/12/09 11:53 KTCL 091153Z AUTO 18009KT 9SM OVC011 17/14 A2995 RMK AO2 SLP141 T01670139 10167 20161 56009
KECP - Panama City, Florida, USA
Distance from station: SSE 122mi, 196km
Updated: Mon, 09-Dec-2019 5:53am CST
Mostly cloudy
Mostly cloudy
 Wind from calm
Wind: Calm
Temperature: 64°F , 18°C
Dew Point: 63°F , 17°C
Humidity: 94%
Barometer: 30.03 inHg , 1016.9 hPa
Clouds: Mostly cloudy
Visibility: 10 miles , 16 km
Cloud details: Partly cloudy 1500 ft
Partly cloudy 3200 ft
Mostly cloudy 4100 ft
2019/12/09 11:53 KECP 091153Z 00000KT 10SM SCT015 SCT032 BKN041 18/17 A3003 RMK AO2 SLP179 60006 70006 T01830167 10183 20178 53005
KCBM - Columbus Afb, Mississippi, USA
Distance from station: NW 175mi, 282km
Updated: Mon, 09-Dec-2019 5:56am CST
Overcast
Overcast
 Wind from S
Wind: S 8 mph , 13 km/h
Temperature: 61°F , 16°C
Dew Point: 57°F , 14°C
Humidity: 88%
Barometer: 29.92 inHg , 1013.2 hPa
Clouds: Overcast
Visibility: 10 miles , 16 km
Cloud details: Overcast 800 ft
2019/12/09 11:56 KCBM 091156Z AUTO 18007KT 10SM OVC008 16/14 A2992 RMK AO2 SLP134 T01590141 10161 20158 55005 $
 
KBHM - Birmingham, Alabama, USA
Distance from station: N 132mi, 212km
Updated: Mon, 09-Dec-2019 5:53am CST
Overcast
Overcast
 Wind from SE
Wind: SE 8 mph , 13 km/h
Temperature: 61°F , 16°C
Dew Point: 55°F , 13°C
Humidity: 83%
Barometer: 29.99 inHg , 1015.6 hPa
Clouds: Overcast
Visibility: 10 miles , 16 km
Cloud details: Overcast 900 ft
2019/12/09 11:53 KBHM 091153Z 14007KT 10SM OVC009 16/13 A2999 RMK AO2 SLP151 T01560128 10156 20144 56008
KAAF - Apalachicola, Florida, USA
Distance from station: SSE 156mi, 250km
Updated: Mon, 09-Dec-2019 5:53am CST
Mostly cloudy
Mostly cloudy
 Wind from SSE
Wind: SSE 13 mph , 20 km/h
Temperature: 68°F , 20°C
Dew Point: 64°F , 18°C
Humidity: 88%
Barometer: 30.03 inHg , 1016.9 hPa
Clouds: Mostly cloudy
Visibility: 10 miles , 16 km
Cloud details: Few Clouds 2100 ft
Partly cloudy 2600 ft
Mostly cloudy 4800 ft
2019/12/09 11:53 KAAF 091153Z AUTO 16011KT 10SM FEW021 SCT026 BKN048 20/18 A3003 RMK AO2 SLP168 60000 T02000178 10200 20183 56008
KATL - Atlanta, Georgia, USA
Distance from station: NE 177mi, 287km
Updated: Mon, 09-Dec-2019 5:52am CST
Light rain, Overcast
Light rain, Overcast
 Wind from E
Wind: E 7 mph , 11 km/h
Temperature: 48°F , 9°C
Wind Chill: 45°F , 7°C
Dew Point: 36°F , 2°C
Humidity: 62%
Barometer: 30.10 inHg , 1019.3 hPa
Summary: Light rain
Clouds: Overcast
Visibility: 10 miles , 16 km
Cloud details: Overcast 1600 ft
2019/12/09 11:52 KATL 091152Z 10006KT 10SM -RA OVC016 09/02 A3010 RMK AO2 RAB24E33B51DZB33E40 PRESRR SLP192 P0000 60000 T00940017 10106 20094 55005
 
KGPT - Gulfport, Mississippi, USA
Distance from station: SW 192mi, 309km
Updated: Mon, 09-Dec-2019 5:53am CST
Partly cloudy
Partly cloudy
 Wind from calm
Wind: Calm
Temperature: 54°F , 12°C
Dew Point: 52°F , 11°C
Humidity: 94%
Barometer: 29.98 inHg , 1015.2 hPa
Clouds: Partly cloudy
Visibility: 8 miles , 13 km
Cloud details: Partly cloudy 300 ft
2019/12/09 11:53 KGPT 091153Z 00000KT 8SM SCT003 12/11 A2998 RMK AO2 SLP151 T01220111 10156 20122 58005
KNEW - New Orleans/Lake, Louisiana, USA
Distance from station: SW 255mi, 410km
Updated: Mon, 09-Dec-2019 5:53am CST
Overcast
Overcast
 Wind from SSE
Wind: SSE 12 mph , 19 km/h
Temperature: 63°F , 17°C
Dew Point: 61°F , 16°C
Humidity: 94%
Barometer: 29.97 inHg , 1014.9 hPa
Clouds: Overcast
Visibility: 9 miles , 14 km
Cloud details: Overcast 3600 ft
2019/12/09 11:53 KNEW 091153Z AUTO 16010KT 9SM OVC036 17/16 A2997 RMK AO2 SLP143 T01720156 10172 20133 55006
KP92 - Salt Point, Louisiana, USA
Distance from station: SW 347mi, 559km
Updated: Mon, 09-Dec-2019 5:59am CST

 Wind from varies
Wind: varies 5 mph , 7 km/h
Temperature: 64°F , 18°C
Barometer: 29.93 inHg , 1013.5 hPa
2019/12/09 11:59 KP92 091159Z AUTO VRB04KT 18/ A2993 RMK AO1 SLP134 T0178 10178 20156 55005 $